sensor_id;sensor_type;location;lat;lon;timestamp;P1;durP1;ratioP1;P2;durP2;ratioP2
49392;SDS011;35268;42.642;23.308;2023-04-03T00:00:10;1.67;;;0.90;;
49392;SDS011;35268;42.642;23.308;2023-04-03T00:02:37;2.70;;;1.00;;
49392;SDS011;35268;42.642;23.308;2023-04-03T00:05:02;3.10;;;1.65;;
49392;SDS011;35268;42.642;23.308;2023-04-03T00:07:29;3.70;;;1.17;;
49392;SDS011;35268;42.642;23.308;2023-04-03T00:09:55;1.98;;;0.82;;
49392;SDS011;35268;42.642;23.308;2023-04-03T00:12:20;4.03;;;0.90;;
49392;SDS011;35268;42.642;23.308;2023-04-03T00:14:46;2.90;;;0.90;;
49392;SDS011;35268;42.642;23.308;2023-04-03T00:17:11;5.80;;;1.67;;
49392;SDS011;35268;42.642;23.308;2023-04-03T00:19:37;1.30;;;0.98;;
49392;SDS011;35268;42.642;23.308;2023-04-03T00:22:02;5.47;;;1.67;;
49392;SDS011;35268;42.642;23.308;2023-04-03T00:24:28;7.03;;;2.33;;
49392;SDS011;35268;42.642;23.308;2023-04-03T00:26:53;6.00;;;1.98;;
49392;SDS011;35268;42.642;23.308;2023-04-03T00:29:18;6.28;;;2.13;;
49392;SDS011;35268;42.642;23.308;2023-04-03T00:31:44;4.88;;;1.98;;
49392;SDS011;35268;42.642;23.308;2023-04-03T00:34:10;4.05;;;1.67;;
49392;SDS011;35268;42.642;23.308;2023-04-03T00:36:35;7.10;;;1.92;;
49392;SDS011;35268;42.642;23.308;2023-04-03T00:39:01;4.18;;;1.60;;
49392;SDS011;35268;42.642;23.308;2023-04-03T00:41:26;3.88;;;1.67;;
49392;SDS011;35268;42.642;23.308;2023-04-03T00:43:52;3.50;;;1.73;;
49392;SDS011;35268;42.642;23.308;2023-04-03T00:46:17;4.40;;;1.90;;
49392;SDS011;35268;42.642;23.308;2023-04-03T00:48:47;2.80;;;1.38;;
49392;SDS011;35268;42.642;23.308;2023-04-03T00:51:14;3.50;;;1.70;;
49392;SDS011;35268;42.642;23.308;2023-04-03T00:53:49;2.60;;;1.27;;
49392;SDS011;35268;42.642;23.308;2023-04-03T00:56:18;3.60;;;1.63;;
49392;SDS011;35268;42.642;23.308;2023-04-03T00:58:48;3.80;;;1.70;;
49392;SDS011;35268;42.642;23.308;2023-04-03T01:01:23;4.95;;;1.73;;
49392;SDS011;35268;42.642;23.308;2023-04-03T01:03:51;3.72;;;1.67;;
49392;SDS011;35268;42.642;23.308;2023-04-03T01:06:17;2.53;;;1.20;;
49392;SDS011;35268;42.642;23.308;2023-04-03T01:08:51;2.58;;;1.13;;
49392;SDS011;35268;42.642;23.308;2023-04-03T01:11:17;3.33;;;1.30;;
49392;SDS011;35268;42.642;23.308;2023-04-03T01:13:43;3.28;;;1.35;;
49392;SDS011;35268;42.642;23.308;2023-04-03T01:16:08;5.03;;;1.35;;
49392;SDS011;35268;42.642;23.308;2023-04-03T01:18:35;4.00;;;1.70;;
49392;SDS011;35268;42.642;23.308;2023-04-03T01:26:47;3.17;;;1.20;;
49392;SDS011;35268;42.642;23.308;2023-04-03T01:29:13;3.78;;;1.10;;
49392;SDS011;35268;42.642;23.308;2023-04-03T01:31:55;2.58;;;1.00;;
49392;SDS011;35268;42.642;23.308;2023-04-03T01:34:22;6.60;;;1.33;;
49392;SDS011;35268;42.642;23.308;2023-04-03T01:36:49;1.92;;;0.93;;
49392;SDS011;35268;42.642;23.308;2023-04-03T01:39:15;2.55;;;1.10;;
49392;SDS011;35268;42.642;23.308;2023-04-03T01:41:41;2.22;;;1.23;;
49392;SDS011;35268;42.642;23.308;2023-04-03T01:44:06;4.82;;;1.33;;
49392;SDS011;35268;42.642;23.308;2023-04-03T01:46:32;3.17;;;1.25;;
49392;SDS011;35268;42.642;23.308;2023-04-03T01:48:57;3.47;;;1.27;;
49392;SDS011;35268;42.642;23.308;2023-04-03T01:51:23;3.75;;;1.20;;
49392;SDS011;35268;42.642;23.308;2023-04-03T01:53:48;4.45;;;1.65;;
49392;SDS011;35268;42.642;23.308;2023-04-03T01:56:14;3.83;;;1.17;;
49392;SDS011;35268;42.642;23.308;2023-04-03T01:58:40;3.05;;;1.33;;
49392;SDS011;35268;42.642;23.308;2023-04-03T02:01:06;3.50;;;1.63;;
49392;SDS011;35268;42.642;23.308;2023-04-03T02:03:31;12.00;;;1.73;;
49392;SDS011;35268;42.642;23.308;2023-04-03T02:05:57;4.88;;;1.80;;
49392;SDS011;35268;42.642;23.308;2023-04-03T02:08:23;7.75;;;2.22;;
49392;SDS011;35268;42.642;23.308;2023-04-03T02:10:48;4.38;;;1.85;;
49392;SDS011;35268;42.642;23.308;2023-04-03T02:14:15;10.65;;;2.50;;
49392;SDS011;35268;42.642;23.308;2023-04-03T02:16:39;4.57;;;2.13;;
49392;SDS011;35268;42.642;23.308;2023-04-03T02:19:04;4.90;;;1.95;;
49392;SDS011;35268;42.642;23.308;2023-04-03T02:21:30;4.30;;;2.30;;
49392;SDS011;35268;42.642;23.308;2023-04-03T02:23:55;4.55;;;2.33;;
49392;SDS011;35268;42.642;23.308;2023-04-03T02:26:21;4.65;;;2.03;;
49392;SDS011;35268;42.642;23.308;2023-04-03T02:28:47;6.82;;;2.25;;
49392;SDS011;35268;42.642;23.308;2023-04-03T02:31:12;6.30;;;2.67;;
49392;SDS011;35268;42.642;23.308;2023-04-03T02:33:38;4.13;;;1.92;;
49392;SDS011;35268;42.642;23.308;2023-04-03T02:36:04;7.00;;;2.38;;
49392;SDS011;35268;42.642;23.308;2023-04-03T02:38:31;10.13;;;2.60;;
49392;SDS011;35268;42.642;23.308;2023-04-03T02:41:07;5.38;;;2.28;;
49392;SDS011;35268;42.642;23.308;2023-04-03T02:43:34;8.50;;;2.33;;
49392;SDS011;35268;42.642;23.308;2023-04-03T02:45:59;5.68;;;2.97;;
49392;SDS011;35268;42.642;23.308;2023-04-03T02:48:25;6.15;;;2.10;;
49392;SDS011;35268;42.642;23.308;2023-04-03T02:50:51;6.80;;;3.10;;
49392;SDS011;35268;42.642;23.308;2023-04-03T02:53:16;6.50;;;2.80;;
49392;SDS011;35268;42.642;23.308;2023-04-03T02:55:42;4.88;;;2.33;;
49392;SDS011;35268;42.642;23.308;2023-04-03T02:58:08;6.05;;;2.17;;
49392;SDS011;35268;42.642;23.308;2023-04-03T03:00:34;6.03;;;2.50;;
49392;SDS011;35268;42.642;23.308;2023-04-03T03:02:59;4.57;;;1.95;;
49392;SDS011;35268;42.642;23.308;2023-04-03T03:05:25;5.68;;;2.40;;
49392;SDS011;35268;42.642;23.308;2023-04-03T03:07:51;5.95;;;2.40;;
49392;SDS011;35268;42.642;23.308;2023-04-03T03:10:16;6.18;;;2.00;;
49392;SDS011;35268;42.642;23.308;2023-04-03T03:12:42;4.13;;;1.73;;
49392;SDS011;35268;42.642;23.308;2023-04-03T03:15:08;6.10;;;1.85;;
49392;SDS011;35268;42.642;23.308;2023-04-03T03:17:33;4.65;;;1.58;;
49392;SDS011;35268;42.642;23.308;2023-04-03T03:20:00;3.33;;;1.27;;
49392;SDS011;35268;42.642;23.308;2023-04-03T03:22:26;3.47;;;1.75;;
49392;SDS011;35268;42.642;23.308;2023-04-03T03:24:51;4.00;;;1.23;;
49392;SDS011;35268;42.642;23.308;2023-04-03T03:27:16;3.40;;;1.40;;
49392;SDS011;35268;42.642;23.308;2023-04-03T03:29:42;3.88;;;1.63;;
49392;SDS011;35268;42.642;23.308;2023-04-03T03:32:08;4.50;;;1.50;;
49392;SDS011;35268;42.642;23.308;2023-04-03T03:34:33;3.72;;;1.38;;
49392;SDS011;35268;42.642;23.308;2023-04-03T03:36:59;7.72;;;1.58;;
49392;SDS011;35268;42.642;23.308;2023-04-03T03:39:25;3.60;;;1.73;;
49392;SDS011;35268;42.642;23.308;2023-04-03T03:41:51;2.58;;;1.27;;
49392;SDS011;35268;42.642;23.308;2023-04-03T03:44:18;5.35;;;1.70;;
49392;SDS011;35268;42.642;23.308;2023-04-03T03:46:44;2.70;;;1.30;;
49392;SDS011;35268;42.642;23.308;2023-04-03T03:49:10;6.68;;;1.65;;
49392;SDS011;35268;42.642;23.308;2023-04-03T03:51:36;3.25;;;1.58;;
49392;SDS011;35268;42.642;23.308;2023-04-03T03:54:02;4.05;;;1.45;;
49392;SDS011;35268;42.642;23.308;2023-04-03T03:56:28;4.18;;;1.48;;
49392;SDS011;35268;42.642;23.308;2023-04-03T03:58:53;4.90;;;1.73;;
49392;SDS011;35268;42.642;23.308;2023-04-03T04:01:21;5.47;;;1.55;;
49392;SDS011;35268;42.642;23.308;2023-04-03T04:03:48;3.40;;;2.00;;
49392;SDS011;35268;42.642;23.308;2023-04-03T04:06:13;12.25;;;2.47;;
49392;SDS011;35268;42.642;23.308;2023-04-03T04:08:38;10.25;;;1.80;;
49392;SDS011;35268;42.642;23.308;2023-04-03T04:11:04;7.05;;;2.00;;
49392;SDS011;35268;42.642;23.308;2023-04-03T04:13:30;7.82;;;1.90;;
49392;SDS011;35268;42.642;23.308;2023-04-03T04:15:55;5.13;;;1.67;;
49392;SDS011;35268;42.642;23.308;2023-04-03T04:18:21;10.13;;;1.92;;
49392;SDS011;35268;42.642;23.308;2023-04-03T04:20:47;5.05;;;2.08;;
49392;SDS011;35268;42.642;23.308;2023-04-03T04:23:13;18.70;;;3.08;;
49392;SDS011;35268;42.642;23.308;2023-04-03T04:25:39;11.07;;;2.70;;
49392;SDS011;35268;42.642;23.308;2023-04-03T04:28:05;10.55;;;2.42;;
49392;SDS011;35268;42.642;23.308;2023-04-03T04:30:30;4.50;;;2.10;;
49392;SDS011;35268;42.642;23.308;2023-04-03T04:32:56;11.63;;;2.65;;
49392;SDS011;35268;42.642;23.308;2023-04-03T04:35:21;10.05;;;2.85;;
49392;SDS011;35268;42.642;23.308;2023-04-03T04:37:47;13.48;;;3.58;;
49392;SDS011;35268;42.642;23.308;2023-04-03T04:40:12;6.47;;;3.13;;
49392;SDS011;35268;42.642;23.308;2023-04-03T04:42:38;8.05;;;3.40;;
49392;SDS011;35268;42.642;23.308;2023-04-03T04:45:03;9.10;;;3.35;;
49392;SDS011;35268;42.642;23.308;2023-04-03T04:47:29;7.47;;;3.38;;
49392;SDS011;35268;42.642;23.308;2023-04-03T04:49:55;6.38;;;3.08;;
49392;SDS011;35268;42.642;23.308;2023-04-03T04:52:20;6.00;;;2.92;;
49392;SDS011;35268;42.642;23.308;2023-04-03T04:54:46;4.93;;;2.42;;
49392;SDS011;35268;42.642;23.308;2023-04-03T04:57:11;9.02;;;2.45;;
49392;SDS011;35268;42.642;23.308;2023-04-03T04:59:36;6.75;;;2.63;;
49392;SDS011;35268;42.642;23.308;2023-04-03T05:02:02;7.80;;;2.38;;
49392;SDS011;35268;42.642;23.308;2023-04-03T05:04:28;7.47;;;2.38;;
49392;SDS011;35268;42.642;23.308;2023-04-03T05:06:53;12.55;;;2.53;;
49392;SDS011;35268;42.642;23.308;2023-04-03T05:09:19;7.07;;;3.03;;
49392;SDS011;35268;42.642;23.308;2023-04-03T05:11:45;6.93;;;3.15;;
49392;SDS011;35268;42.642;23.308;2023-04-03T05:14:11;5.93;;;2.47;;
49392;SDS011;35268;42.642;23.308;2023-04-03T05:16:36;10.35;;;2.60;;
49392;SDS011;35268;42.642;23.308;2023-04-03T05:19:02;6.85;;;3.00;;
49392;SDS011;35268;42.642;23.308;2023-04-03T05:21:27;7.97;;;2.70;;
49392;SDS011;35268;42.642;23.308;2023-04-03T05:23:57;10.52;;;4.20;;
49392;SDS011;35268;42.642;23.308;2023-04-03T05:26:27;18.08;;;3.80;;
49392;SDS011;35268;42.642;23.308;2023-04-03T05:28:55;16.88;;;5.88;;
49392;SDS011;35268;42.642;23.308;2023-04-03T05:31:21;13.63;;;5.38;;
49392;SDS011;35268;42.642;23.308;2023-04-03T05:33:46;14.68;;;5.20;;
49392;SDS011;35268;42.642;23.308;2023-04-03T05:36:12;10.40;;;5.07;;
49392;SDS011;35268;42.642;23.308;2023-04-03T05:38:38;19.20;;;6.72;;
49392;SDS011;35268;42.642;23.308;2023-04-03T05:41:03;17.15;;;5.60;;
49392;SDS011;35268;42.642;23.308;2023-04-03T05:43:29;12.15;;;4.55;;
49392;SDS011;35268;42.642;23.308;2023-04-03T05:45:54;21.35;;;4.55;;
49392;SDS011;35268;42.642;23.308;2023-04-03T05:48:20;14.05;;;5.45;;
49392;SDS011;35268;42.642;23.308;2023-04-03T05:50:45;9.77;;;4.72;;
49392;SDS011;35268;42.642;23.308;2023-04-03T05:53:16;11.30;;;4.43;;
49392;SDS011;35268;42.642;23.308;2023-04-03T05:55:46;9.20;;;4.05;;
49392;SDS011;35268;42.642;23.308;2023-04-03T05:58:11;15.10;;;6.05;;
49392;SDS011;35268;42.642;23.308;2023-04-03T06:00:37;12.38;;;4.78;;
49392;SDS011;35268;42.642;23.308;2023-04-03T06:03:02;16.25;;;4.80;;
49392;SDS011;35268;42.642;23.308;2023-04-03T06:05:28;12.88;;;4.28;;
49392;SDS011;35268;42.642;23.308;2023-04-03T06:07:53;13.70;;;5.40;;
49392;SDS011;35268;42.642;23.308;2023-04-03T06:10:19;26.65;;;5.63;;
49392;SDS011;35268;42.642;23.308;2023-04-03T06:12:45;16.52;;;6.22;;
49392;SDS011;35268;42.642;23.308;2023-04-03T06:15:10;15.75;;;6.20;;
49392;SDS011;35268;42.642;23.308;2023-04-03T06:17:37;21.52;;;6.32;;
49392;SDS011;35268;42.642;23.308;2023-04-03T06:20:02;21.27;;;7.03;;
49392;SDS011;35268;42.642;23.308;2023-04-03T06:22:29;28.33;;;6.50;;
49392;SDS011;35268;42.642;23.308;2023-04-03T06:24:55;43.03;;;7.90;;
49392;SDS011;35268;42.642;23.308;2023-04-03T06:27:21;36.70;;;6.57;;
49392;SDS011;35268;42.642;23.308;2023-04-03T06:29:46;30.35;;;7.40;;
49392;SDS011;35268;42.642;23.308;2023-04-03T06:32:15;23.38;;;7.22;;
49392;SDS011;35268;42.642;23.308;2023-04-03T06:34:40;19.13;;;6.85;;
49392;SDS011;35268;42.642;23.308;2023-04-03T06:37:09;16.55;;;6.57;;
49392;SDS011;35268;42.642;23.308;2023-04-03T06:39:41;16.13;;;6.78;;
49392;SDS011;35268;42.642;23.308;2023-04-03T06:42:07;20.20;;;6.65;;
49392;SDS011;35268;42.642;23.308;2023-04-03T06:44:32;20.98;;;6.55;;
49392;SDS011;35268;42.642;23.308;2023-04-03T06:46:59;16.80;;;6.40;;
49392;SDS011;35268;42.642;23.308;2023-04-03T06:49:25;21.50;;;8.07;;
49392;SDS011;35268;42.642;23.308;2023-04-03T06:51:51;20.77;;;7.18;;
49392;SDS011;35268;42.642;23.308;2023-04-03T06:54:17;26.13;;;6.32;;
49392;SDS011;35268;42.642;23.308;2023-04-03T06:56:43;13.45;;;5.97;;
49392;SDS011;35268;42.642;23.308;2023-04-03T06:59:09;13.52;;;5.30;;
49392;SDS011;35268;42.642;23.308;2023-04-03T07:01:37;18.95;;;6.13;;
49392;SDS011;35268;42.642;23.308;2023-04-03T07:04:03;14.23;;;4.97;;
49392;SDS011;35268;42.642;23.308;2023-04-03T07:06:29;16.10;;;5.18;;
49392;SDS011;35268;42.642;23.308;2023-04-03T07:08:55;11.63;;;5.20;;
49392;SDS011;35268;42.642;23.308;2023-04-03T07:11:21;21.77;;;6.20;;
49392;SDS011;35268;42.642;23.308;2023-04-03T07:13:47;15.60;;;5.50;;
49392;SDS011;35268;42.642;23.308;2023-04-03T07:16:13;23.40;;;6.05;;
49392;SDS011;35268;42.642;23.308;2023-04-03T07:18:38;12.02;;;5.82;;
49392;SDS011;35268;42.642;23.308;2023-04-03T07:21:04;13.77;;;6.53;;
49392;SDS011;35268;42.642;23.308;2023-04-03T07:23:30;12.52;;;6.28;;
49392;SDS011;35268;42.642;23.308;2023-04-03T07:25:55;10.85;;;5.57;;
49392;SDS011;35268;42.642;23.308;2023-04-03T07:28:21;16.60;;;6.10;;
49392;SDS011;35268;42.642;23.308;2023-04-03T07:30:52;17.15;;;7.28;;
49392;SDS011;35268;42.642;23.308;2023-04-03T07:33:19;18.00;;;7.00;;
49392;SDS011;35268;42.642;23.308;2023-04-03T07:35:47;15.70;;;6.95;;
49392;SDS011;35268;42.642;23.308;2023-04-03T07:38:12;24.52;;;9.02;;
49392;SDS011;35268;42.642;23.308;2023-04-03T07:40:38;28.75;;;8.70;;
49392;SDS011;35268;42.642;23.308;2023-04-03T07:43:05;33.22;;;8.85;;
49392;SDS011;35268;42.642;23.308;2023-04-03T07:45:31;16.05;;;7.95;;
49392;SDS011;35268;42.642;23.308;2023-04-03T07:47:59;22.77;;;7.78;;
49392;SDS011;35268;42.642;23.308;2023-04-03T07:50:25;18.60;;;8.27;;
49392;SDS011;35268;42.642;23.308;2023-04-03T07:52:51;13.68;;;7.10;;
49392;SDS011;35268;42.642;23.308;2023-04-03T07:55:17;17.48;;;6.65;;
49392;SDS011;35268;42.642;23.308;2023-04-03T07:57:43;23.15;;;6.68;;
49392;SDS011;35268;42.642;23.308;2023-04-03T08:00:08;17.98;;;6.85;;
49392;SDS011;35268;42.642;23.308;2023-04-03T08:02:34;17.98;;;5.90;;
49392;SDS011;35268;42.642;23.308;2023-04-03T08:05:00;21.55;;;5.95;;
49392;SDS011;35268;42.642;23.308;2023-04-03T08:07:25;11.27;;;5.47;;
49392;SDS011;35268;42.642;23.308;2023-04-03T08:09:51;14.38;;;5.85;;
49392;SDS011;35268;42.642;23.308;2023-04-03T08:12:17;19.05;;;6.10;;
49392;SDS011;35268;42.642;23.308;2023-04-03T08:14:42;15.57;;;5.72;;
49392;SDS011;35268;42.642;23.308;2023-04-03T08:17:08;32.03;;;6.22;;
49392;SDS011;35268;42.642;23.308;2023-04-03T08:19:36;10.85;;;5.55;;
49392;SDS011;35268;42.642;23.308;2023-04-03T08:22:03;14.98;;;5.63;;
49392;SDS011;35268;42.642;23.308;2023-04-03T08:24:30;14.25;;;6.35;;
49392;SDS011;35268;42.642;23.308;2023-04-03T08:26:56;32.42;;;6.00;;
49392;SDS011;35268;42.642;23.308;2023-04-03T08:29:21;12.18;;;5.05;;
49392;SDS011;35268;42.642;23.308;2023-04-03T08:31:47;21.10;;;5.25;;
49392;SDS011;35268;42.642;23.308;2023-04-03T08:34:14;16.80;;;5.38;;
49392;SDS011;35268;42.642;23.308;2023-04-03T08:36:40;17.40;;;6.63;;
49392;SDS011;35268;42.642;23.308;2023-04-03T08:39:06;19.58;;;6.63;;
49392;SDS011;35268;42.642;23.308;2023-04-03T08:41:35;23.77;;;7.05;;
49392;SDS011;35268;42.642;23.308;2023-04-03T08:47:24;22.88;;;7.25;;
49392;SDS011;35268;42.642;23.308;2023-04-03T08:49:52;24.27;;;7.68;;
49392;SDS011;35268;42.642;23.308;2023-04-03T09:01:05;17.60;;;8.02;;
49392;SDS011;35268;42.642;23.308;2023-04-03T09:03:39;20.92;;;6.93;;
49392;SDS011;35268;42.642;23.308;2023-04-03T09:06:22;25.15;;;7.07;;
49392;SDS011;35268;42.642;23.308;2023-04-03T09:09:02;21.83;;;7.57;;
49392;SDS011;35268;42.642;23.308;2023-04-03T09:14:21;24.00;;;7.13;;
49392;SDS011;35268;42.642;23.308;2023-04-03T09:16:55;13.48;;;6.25;;
49392;SDS011;35268;42.642;23.308;2023-04-03T09:21:58;21.02;;;6.32;;
49392;SDS011;35268;42.642;23.308;2023-04-03T09:24:36;12.93;;;5.35;;
49392;SDS011;35268;42.642;23.308;2023-04-03T09:27:06;12.85;;;4.30;;
49392;SDS011;35268;42.642;23.308;2023-04-03T09:29:36;5.97;;;2.17;;
49392;SDS011;35268;42.642;23.308;2023-04-03T09:34:46;3.90;;;1.40;;
49392;SDS011;35268;42.642;23.308;2023-04-03T09:37:32;3.88;;;0.85;;
49392;SDS011;35268;42.642;23.308;2023-04-03T09:40:01;3.45;;;1.10;;
49392;SDS011;35268;42.642;23.308;2023-04-03T09:42:29;3.83;;;1.25;;
49392;SDS011;35268;42.642;23.308;2023-04-03T09:44:58;5.35;;;1.77;;
49392;SDS011;35268;42.642;23.308;2023-04-03T09:47:29;4.35;;;1.75;;
49392;SDS011;35268;42.642;23.308;2023-04-03T09:52:42;2.47;;;0.98;;
49392;SDS011;35268;42.642;23.308;2023-04-03T09:55:16;3.05;;;1.30;;
49392;SDS011;35268;42.642;23.308;2023-04-03T09:57:44;3.90;;;1.45;;
49392;SDS011;35268;42.642;23.308;2023-04-03T10:00:25;2.53;;;1.70;;
49392;SDS011;35268;42.642;23.308;2023-04-03T10:02:56;3.15;;;1.33;;
49392;SDS011;35268;42.642;23.308;2023-04-03T10:05:35;9.57;;;1.48;;
49392;SDS011;35268;42.642;23.308;2023-04-03T10:10:44;8.00;;;1.67;;
49392;SDS011;35268;42.642;23.308;2023-04-03T10:13:20;4.50;;;1.20;;
49392;SDS011;35268;42.642;23.308;2023-04-03T10:23:47;2.83;;;1.17;;
49392;SDS011;35268;42.642;23.308;2023-04-03T10:29:16;7.15;;;2.53;;
49392;SDS011;35268;42.642;23.308;2023-04-03T10:39:57;6.03;;;2.25;;
49392;SDS011;35268;42.642;23.308;2023-04-03T10:43:10;3.92;;;1.52;;
49392;SDS011;35268;42.642;23.308;2023-04-03T10:50:52;2.92;;;1.30;;
49392;SDS011;35268;42.642;23.308;2023-04-03T10:58:32;4.50;;;1.87;;
49392;SDS011;35268;42.642;23.308;2023-04-03T11:01:07;3.53;;;1.27;;
49392;SDS011;35268;42.642;23.308;2023-04-03T11:03:40;6.70;;;1.83;;
49392;SDS011;35268;42.642;23.308;2023-04-03T11:06:11;7.88;;;2.05;;
49392;SDS011;35268;42.642;23.308;2023-04-03T11:08:42;6.75;;;1.58;;
49392;SDS011;35268;42.642;23.308;2023-04-03T11:11:09;3.28;;;1.38;;
49392;SDS011;35268;42.642;23.308;2023-04-03T11:14:22;8.70;;;1.88;;
49392;SDS011;35268;42.642;23.308;2023-04-03T11:16:31;5.83;;;2.13;;
49392;SDS011;35268;42.642;23.308;2023-04-03T11:19:03;3.53;;;1.83;;
49392;SDS011;35268;42.642;23.308;2023-04-03T11:21:45;5.88;;;1.80;;
49392;SDS011;35268;42.642;23.308;2023-04-03T11:24:24;4.82;;;1.83;;
49392;SDS011;35268;42.642;23.308;2023-04-03T11:26:52;8.70;;;2.53;;
49392;SDS011;35268;42.642;23.308;2023-04-03T11:29:22;6.93;;;2.28;;
49392;SDS011;35268;42.642;23.308;2023-04-03T11:32:02;8.20;;;2.83;;
49392;SDS011;35268;42.642;23.308;2023-04-03T11:34:33;5.50;;;2.47;;
49392;SDS011;35268;42.642;23.308;2023-04-03T11:37:21;6.97;;;2.28;;
49392;SDS011;35268;42.642;23.308;2023-04-03T11:39:59;7.63;;;2.33;;
49392;SDS011;35268;42.642;23.308;2023-04-03T11:42:33;8.75;;;2.90;;
49392;SDS011;35268;42.642;23.308;2023-04-03T11:45:16;6.60;;;3.45;;
49392;SDS011;35268;42.642;23.308;2023-04-03T12:05:49;8.35;;;3.42;;
49392;SDS011;35268;42.642;23.308;2023-04-03T12:13:39;15.82;;;3.72;;
49392;SDS011;35268;42.642;23.308;2023-04-03T12:16:29;7.75;;;2.53;;
49392;SDS011;35268;42.642;23.308;2023-04-03T12:29:27;5.40;;;3.33;;
49392;SDS011;35268;42.642;23.308;2023-04-03T12:46:11;5.07;;;2.53;;
49392;SDS011;35268;42.642;23.308;2023-04-03T12:48:59;7.95;;;2.90;;
49392;SDS011;35268;42.642;23.308;2023-04-03T12:51:34;7.97;;;3.22;;
49392;SDS011;35268;42.642;23.308;2023-04-03T12:54:13;5.63;;;3.05;;
49392;SDS011;35268;42.642;23.308;2023-04-03T12:56:41;5.40;;;2.85;;
49392;SDS011;35268;42.642;23.308;2023-04-03T12:59:14;9.57;;;3.00;;
49392;SDS011;35268;42.642;23.308;2023-04-03T13:01:57;12.00;;;3.33;;
49392;SDS011;35268;42.642;23.308;2023-04-03T13:04:24;12.40;;;4.50;;
49392;SDS011;35268;42.642;23.308;2023-04-03T13:06:51;7.82;;;2.42;;
49392;SDS011;35268;42.642;23.308;2023-04-03T13:09:30;8.25;;;2.63;;
49392;SDS011;35268;42.642;23.308;2023-04-03T13:14:37;13.80;;;4.00;;
49392;SDS011;35268;42.642;23.308;2023-04-03T13:17:03;7.93;;;3.15;;
49392;SDS011;35268;42.642;23.308;2023-04-03T13:19:36;7.03;;;2.65;;
49392;SDS011;35268;42.642;23.308;2023-04-03T13:22:04;5.28;;;2.20;;
49392;SDS011;35268;42.642;23.308;2023-04-03T13:24:35;4.35;;;2.22;;
49392;SDS011;35268;42.642;23.308;2023-04-03T13:27:03;6.97;;;3.20;;
49392;SDS011;35268;42.642;23.308;2023-04-03T13:29:30;6.50;;;3.08;;
49392;SDS011;35268;42.642;23.308;2023-04-03T13:31:59;4.45;;;2.30;;
49392;SDS011;35268;42.642;23.308;2023-04-03T13:34:40;3.70;;;1.77;;
49392;SDS011;35268;42.642;23.308;2023-04-03T13:37:19;6.47;;;1.93;;
49392;SDS011;35268;42.642;23.308;2023-04-03T13:42:28;5.53;;;2.25;;
49392;SDS011;35268;42.642;23.308;2023-04-03T13:47:49;9.40;;;2.90;;
49392;SDS011;35268;42.642;23.308;2023-04-03T13:50:18;8.45;;;2.95;;
49392;SDS011;35268;42.642;23.308;2023-04-03T13:52:54;5.22;;;2.67;;
49392;SDS011;35268;42.642;23.308;2023-04-03T13:55:29;6.63;;;3.40;;
49392;SDS011;35268;42.642;23.308;2023-04-03T13:57:59;4.28;;;2.15;;
49392;SDS011;35268;42.642;23.308;2023-04-03T14:00:48;5.80;;;1.95;;
49392;SDS011;35268;42.642;23.308;2023-04-03T14:03:23;4.60;;;2.08;;
49392;SDS011;35268;42.642;23.308;2023-04-03T14:06:16;4.90;;;2.17;;
49392;SDS011;35268;42.642;23.308;2023-04-03T14:08:42;5.90;;;2.53;;
49392;SDS011;35268;42.642;23.308;2023-04-03T14:11:19;4.38;;;2.05;;
49392;SDS011;35268;42.642;23.308;2023-04-03T14:13:48;4.60;;;2.53;;
49392;SDS011;35268;42.642;23.308;2023-04-03T14:16:17;5.15;;;1.80;;
49392;SDS011;35268;42.642;23.308;2023-04-03T14:18:44;2.97;;;1.80;;
49392;SDS011;35268;42.642;23.308;2023-04-03T14:21:11;7.72;;;2.10;;
49392;SDS011;35268;42.642;23.308;2023-04-03T14:23:39;4.45;;;2.10;;
49392;SDS011;35268;42.642;23.308;2023-04-03T14:26:08;7.70;;;3.00;;
49392;SDS011;35268;42.642;23.308;2023-04-03T14:28:47;5.47;;;2.70;;
49392;SDS011;35268;42.642;23.308;2023-04-03T14:31:15;5.30;;;2.20;;
49392;SDS011;35268;42.642;23.308;2023-04-03T14:33:41;4.22;;;1.83;;
49392;SDS011;35268;42.642;23.308;2023-04-03T14:39:02;5.32;;;2.25;;
49392;SDS011;35268;42.642;23.308;2023-04-03T14:41:29;4.55;;;2.00;;
49392;SDS011;35268;42.642;23.308;2023-04-03T14:43:55;6.05;;;2.20;;
49392;SDS011;35268;42.642;23.308;2023-04-03T14:46:28;4.32;;;2.15;;
49392;SDS011;35268;42.642;23.308;2023-04-03T14:48:56;2.72;;;1.58;;
49392;SDS011;35268;42.642;23.308;2023-04-03T14:51:22;3.78;;;1.73;;
49392;SDS011;35268;42.642;23.308;2023-04-03T14:53:48;4.93;;;1.50;;
49392;SDS011;35268;42.642;23.308;2023-04-03T14:56:16;2.70;;;1.50;;
49392;SDS011;35268;42.642;23.308;2023-04-03T14:58:43;3.08;;;1.52;;
49392;SDS011;35268;42.642;23.308;2023-04-03T15:01:13;3.38;;;1.40;;
49392;SDS011;35268;42.642;23.308;2023-04-03T15:03:39;2.75;;;1.55;;
49392;SDS011;35268;42.642;23.308;2023-04-03T15:06:04;2.75;;;1.75;;
49392;SDS011;35268;42.642;23.308;2023-04-03T15:08:30;6.07;;;2.35;;
49392;SDS011;35268;42.642;23.308;2023-04-03T15:10:56;4.35;;;1.98;;
49392;SDS011;35268;42.642;23.308;2023-04-03T15:13:22;5.93;;;2.50;;
49392;SDS011;35268;42.642;23.308;2023-04-03T15:15:49;5.18;;;1.92;;
49392;SDS011;35268;42.642;23.308;2023-04-03T15:18:22;4.68;;;2.40;;
49392;SDS011;35268;42.642;23.308;2023-04-03T15:20:53;4.10;;;2.20;;
49392;SDS011;35268;42.642;23.308;2023-04-03T15:23:19;4.97;;;2.40;;
49392;SDS011;35268;42.642;23.308;2023-04-03T15:25:50;4.20;;;2.30;;
49392;SDS011;35268;42.642;23.308;2023-04-03T15:28:22;3.47;;;1.90;;
49392;SDS011;35268;42.642;23.308;2023-04-03T15:30:51;4.80;;;2.13;;
49392;SDS011;35268;42.642;23.308;2023-04-03T15:33:16;6.22;;;1.83;;
49392;SDS011;35268;42.642;23.308;2023-04-03T15:35:42;4.25;;;2.25;;
49392;SDS011;35268;42.642;23.308;2023-04-03T15:38:07;4.53;;;2.33;;
49392;SDS011;35268;42.642;23.308;2023-04-03T15:40:34;6.50;;;2.20;;
49392;SDS011;35268;42.642;23.308;2023-04-03T15:42:59;4.85;;;2.22;;
49392;SDS011;35268;42.642;23.308;2023-04-03T15:45:25;9.45;;;2.80;;
49392;SDS011;35268;42.642;23.308;2023-04-03T15:47:53;6.15;;;2.50;;
49392;SDS011;35268;42.642;23.308;2023-04-03T15:50:19;4.55;;;2.58;;
49392;SDS011;35268;42.642;23.308;2023-04-03T15:52:47;4.35;;;2.38;;
49392;SDS011;35268;42.642;23.308;2023-04-03T15:55:13;4.32;;;2.33;;
49392;SDS011;35268;42.642;23.308;2023-04-03T15:57:39;5.30;;;2.63;;
49392;SDS011;35268;42.642;23.308;2023-04-03T16:00:04;6.03;;;2.75;;
49392;SDS011;35268;42.642;23.308;2023-04-03T16:02:31;6.40;;;2.70;;
49392;SDS011;35268;42.642;23.308;2023-04-03T16:04:57;6.70;;;3.05;;
49392;SDS011;35268;42.642;23.308;2023-04-03T16:07:22;5.15;;;2.38;;
49392;SDS011;35268;42.642;23.308;2023-04-03T16:09:48;7.80;;;2.75;;
49392;SDS011;35268;42.642;23.308;2023-04-03T16:12:13;3.60;;;1.67;;
49392;SDS011;35268;42.642;23.308;2023-04-03T16:14:39;7.35;;;1.55;;
49392;SDS011;35268;42.642;23.308;2023-04-03T16:17:05;5.10;;;1.52;;
49392;SDS011;35268;42.642;23.308;2023-04-03T16:19:30;3.15;;;1.42;;
49392;SDS011;35268;42.642;23.308;2023-04-03T16:21:56;2.97;;;1.58;;
49392;SDS011;35268;42.642;23.308;2023-04-03T16:24:22;4.15;;;2.00;;
49392;SDS011;35268;42.642;23.308;2023-04-03T16:26:47;4.88;;;2.10;;
49392;SDS011;35268;42.642;23.308;2023-04-03T16:29:13;4.20;;;2.35;;
49392;SDS011;35268;42.642;23.308;2023-04-03T16:31:41;6.60;;;2.60;;
49392;SDS011;35268;42.642;23.308;2023-04-03T16:34:07;6.30;;;2.75;;
49392;SDS011;35268;42.642;23.308;2023-04-03T16:36:32;5.30;;;2.65;;